Time;durP1;ratioP1;P1;durP2;ratioP2;P2;SDS_P1;SDS_P2;PMS_P1;PMS_P2;Temp;Humidity;BMP_temperature;BMP_pressure;BME280_temperature;BME280_humidity;BME280_pressure;Samples;Min_cycle;Max_cycle;Signal;HPM_P1;HPM_P2
2023/11/22 00:01:06;;;;;;;9.45;5.78;;;;;;;;;;5022239;28;20018;-78
2023/11/22 00:03:32;;;;;;;9.10;5.75;;;;;;;;;;5016924;28;20149;-79
2023/11/22 00:05:58;;;;;;;7.13;5.20;;;;;;;;;;5049444;22;20107;-79
2023/11/22 00:08:24;;;;;;;7.18;5.53;;;;;;;;;;5042993;28;20037;-79
2023/11/22 00:10:50;;;;;;;7.55;4.60;;;;;;;;;;5037228;28;20067;-79
2023/11/22 00:13:16;;;;;;;6.40;4.30;;;;;;;;;;5042577;28;20025;-78
2023/11/22 00:15:42;;;;;;;8.15;3.97;;;;;;;;;;5033564;28;20057;-79
2023/11/22 00:18:09;;;;;;;5.65;3.97;;;;;;;;;;5019082;28;20018;-80
2023/11/22 00:20:35;;;;;;;4.32;3.53;;;;;;;;;;5034938;28;20391;-80
2023/11/22 00:23:03;;;;;;;7.28;4.43;;;;;;;;;;5026685;28;20049;-80
2023/11/22 00:25:29;;;;;;;6.20;4.57;;;;;;;;;;5025450;28;20094;-78
2023/11/22 00:27:55;;;;;;;7.97;5.10;;;;;;;;;;5024516;28;20026;-79
2023/11/22 00:30:23;;;;;;;7.18;4.88;;;;;;;;;;5024922;28;20022;-79
2023/11/22 00:32:49;;;;;;;7.65;5.13;;;;;;;;;;5024701;28;20018;-79
2023/11/22 00:35:15;;;;;;;6.95;5.35;;;;;;;;;;5026612;28;20022;-78
2023/11/22 00:37:41;;;;;;;7.72;5.40;;;;;;;;;;5030896;28;20040;-79
2023/11/22 00:40:10;;;;;;;8.23;5.65;;;;;;;;;;5029800;28;20104;-79
2023/11/22 00:42:39;;;;;;;9.15;6.13;;;;;;;;;;5020923;28;20081;-79
2023/11/22 00:45:05;;;;;;;9.75;6.30;;;;;;;;;;5025053;28;20540;-79
2023/11/22 00:47:32;;;;;;;7.38;5.65;;;;;;;;;;5024454;28;20041;-78
2023/11/22 00:49:58;;;;;;;7.78;5.68;;;;;;;;;;5028905;28;20368;-80
2023/11/22 00:52:24;;;;;;;7.00;5.30;;;;;;;;;;5024840;28;20022;-80
2023/11/22 00:54:50;;;;;;;10.90;6.85;;;;;;;;;;5031749;28;20040;-78
2023/11/22 00:57:16;;;;;;;7.03;6.10;;;;;;;;;;5034244;28;20038;-79
2023/11/22 00:59:43;;;;;;;8.02;5.97;;;;;;;;;;5029427;28;20038;-79
2023/11/22 01:02:09;;;;;;;7.47;5.57;;;;;;;;;;5026561;28;20018;-79
2023/11/22 01:04:36;;;;;;;9.60;5.95;;;;;;;;;;5035089;28;20039;-78
2023/11/22 01:07:04;;;;;;;6.78;5.70;;;;;;;;;;5035306;28;20028;-77
2023/11/22 01:09:31;;;;;;;6.97;5.85;;;;;;;;;;5034595;28;20022;-78
2023/11/22 01:11:58;;;;;;;6.82;5.00;;;;;;;;;;5030889;28;20057;-79
2023/11/22 01:14:24;;;;;;;7.82;5.07;;;;;;;;;;5024401;28;20018;-80
2023/11/22 01:16:50;;;;;;;7.35;5.43;;;;;;;;;;5024061;28;20049;-80
2023/11/22 01:19:16;;;;;;;6.03;4.72;;;;;;;;;;5025578;28;20040;-80
2023/11/22 01:21:42;;;;;;;7.35;5.78;;;;;;;;;;5025807;28;20089;-80
2023/11/22 01:24:08;;;;;;;8.32;5.03;;;;;;;;;;5029763;28;20049;-79
2023/11/22 01:26:34;;;;;;;10.57;6.05;;;;;;;;;;5037445;28;20097;-77
2023/11/22 01:29:02;;;;;;;8.48;5.80;;;;;;;;;;5035638;28;20033;-79
2023/11/22 01:31:28;;;;;;;8.68;5.93;;;;;;;;;;5029255;28;20021;-79
2023/11/22 01:33:54;;;;;;;7.35;4.90;;;;;;;;;;5032677;28;20025;-80
2023/11/22 01:36:20;;;;;;;7.05;4.78;;;;;;;;;;5033361;28;20081;-81
2023/11/22 01:38:47;;;;;;;8.10;4.78;;;;;;;;;;5029008;28;20030;-80
2023/11/22 01:41:14;;;;;;;4.40;3.85;;;;;;;;;;5028077;28;20026;-78
2023/11/22 01:43:41;;;;;;;7.07;4.72;;;;;;;;;;5026231;28;20037;-79
2023/11/22 01:46:08;;;;;;;5.07;4.30;;;;;;;;;;5023869;28;20104;-79
2023/11/22 01:48:36;;;;;;;6.43;4.45;;;;;;;;;;5036365;28;20026;-79
2023/11/22 01:51:02;;;;;;;4.80;3.97;;;;;;;;;;5026685;28;20045;-78
2023/11/22 01:53:28;;;;;;;6.28;4.55;;;;;;;;;;5027054;28;20030;-79
2023/11/22 01:55:54;;;;;;;6.57;4.35;;;;;;;;;;5026394;28;20026;-79
2023/11/22 01:58:21;;;;;;;5.13;4.30;;;;;;;;;;5029553;28;20021;-79
2023/11/22 02:00:51;;;;;;;7.47;5.43;;;;;;;;;;5028235;28;20021;-80
2023/11/22 02:03:18;;;;;;;8.13;5.32;;;;;;;;;;5028674;28;20057;-79
2023/11/22 02:05:45;;;;;;;8.35;5.82;;;;;;;;;;5029011;28;20030;-80
2023/11/22 02:08:11;;;;;;;8.75;5.95;;;;;;;;;;5028490;28;20355;-80
2023/11/22 02:10:37;;;;;;;7.22;4.68;;;;;;;;;;5028658;28;20103;-80
2023/11/22 02:13:10;;;;;;;5.82;3.67;;;;;;;;;;5032234;28;20022;-80
2023/11/22 02:15:36;;;;;;;8.00;4.38;;;;;;;;;;5037450;28;20076;-80
2023/11/22 02:18:02;;;;;;;5.88;4.78;;;;;;;;;;5029591;28;20033;-81
2023/11/22 02:20:29;;;;;;;6.25;4.28;;;;;;;;;;5037302;28;20023;-77
2023/11/22 02:22:55;;;;;;;5.43;4.10;;;;;;;;;;5033727;28;20034;-79
2023/11/22 02:25:21;;;;;;;4.72;4.07;;;;;;;;;;5025268;28;20018;-77
2023/11/22 02:27:47;;;;;;;4.20;3.33;;;;;;;;;;5030399;28;20054;-80
2023/11/22 02:30:14;;;;;;;3.28;2.78;;;;;;;;;;5021884;28;20033;-79
2023/11/22 02:32:40;;;;;;;2.85;2.35;;;;;;;;;;5026224;28;20112;-80
2023/11/22 02:35:07;;;;;;;2.28;1.95;;;;;;;;;;5026710;28;20021;-79
2023/11/22 02:37:35;;;;;;;2.70;2.10;;;;;;;;;;5026783;28;20364;-78
2023/11/22 02:40:20;;;;;;;1.90;1.80;;;;;;;;;;5026490;28;20073;-79
2023/11/22 02:42:49;;;;;;;1.63;1.52;;;;;;;;;;5030506;28;20021;-79
2023/11/22 02:45:19;;;;;;;1.83;1.58;;;;;;;;;;5030879;28;20106;-80
2023/11/22 02:47:46;;;;;;;2.17;1.75;;;;;;;;;;5027772;28;20129;-80
2023/11/22 02:50:15;;;;;;;3.17;2.03;;;;;;;;;;5028393;28;20445;-78
2023/11/22 02:52:41;;;;;;;4.55;2.13;;;;;;;;;;5019399;28;20037;-78
2023/11/22 02:55:09;;;;;;;3.10;2.22;;;;;;;;;;5019005;28;20010;-78
2023/11/22 02:57:36;;;;;;;2.22;1.83;;;;;;;;;;5018442;28;20392;-78
2023/11/22 03:00:03;;;;;;;3.08;2.20;;;;;;;;;;5019418;28;20037;-79
2023/11/22 03:02:30;;;;;;;3.42;2.38;;;;;;;;;;5016403;28;20104;-79
2023/11/22 03:04:56;;;;;;;2.70;2.15;;;;;;;;;;5017840;28;20022;-79
2023/11/22 03:07:22;;;;;;;3.05;2.42;;;;;;;;;;5017815;28;20084;-79
2023/11/22 03:09:48;;;;;;;2.78;2.30;;;;;;;;;;5016690;28;20503;-77
2023/11/22 03:12:14;;;;;;;3.05;2.60;;;;;;;;;;5017977;28;20361;-78
2023/11/22 03:14:40;;;;;;;2.72;2.13;;;;;;;;;;5016816;28;20073;-78
2023/11/22 03:17:08;;;;;;;2.80;2.22;;;;;;;;;;5016574;28;20042;-79
2023/11/22 03:19:34;;;;;;;2.75;2.10;;;;;;;;;;5017865;28;20414;-78
2023/11/22 03:22:03;;;;;;;2.53;2.10;;;;;;;;;;5020382;28;20026;-78
2023/11/22 03:24:30;;;;;;;2.67;2.22;;;;;;;;;;5018917;28;20026;-80
2023/11/22 03:26:58;;;;;;;2.30;1.77;;;;;;;;;;5027820;28;20097;-79
2023/11/22 03:29:25;;;;;;;3.78;2.20;;;;;;;;;;5019046;28;20037;-79
2023/11/22 03:31:51;;;;;;;2.25;1.88;;;;;;;;;;5008725;28;20022;-79
2023/11/22 03:34:17;;;;;;;2.30;2.10;;;;;;;;;;5018000;28;20009;-78
2023/11/22 03:36:43;;;;;;;2.40;2.13;;;;;;;;;;5017664;28;20022;-78
2023/11/22 03:39:10;;;;;;;2.38;2.05;;;;;;;;;;5018425;28;20025;-78
2023/11/22 03:41:37;;;;;;;2.42;2.22;;;;;;;;;;5017657;28;20018;-78
2023/11/22 03:44:04;;;;;;;2.20;2.00;;;;;;;;;;5019371;28;20018;-79
2023/11/22 03:46:30;;;;;;;2.55;2.05;;;;;;;;;;5016478;28;20021;-79
2023/11/22 03:48:56;;;;;;;2.80;2.30;;;;;;;;;;5028959;28;20017;-78
2023/11/22 03:51:22;;;;;;;2.63;2.20;;;;;;;;;;5020160;28;20053;-79
2023/11/22 03:53:48;;;;;;;2.83;2.17;;;;;;;;;;5016910;28;20060;-79
2023/11/22 03:56:14;;;;;;;2.53;2.20;;;;;;;;;;5009365;28;20036;-78
2023/11/22 03:58:40;;;;;;;2.80;2.38;;;;;;;;;;5014868;28;20493;-80
2023/11/22 04:01:06;;;;;;;2.05;1.75;;;;;;;;;;5014491;28;20029;-79
2023/11/22 04:03:32;;;;;;;2.38;1.92;;;;;;;;;;5006965;28;20037;-76
2023/11/22 04:05:58;;;;;;;3.08;1.77;;;;;;;;;;5011828;28;20133;-78
2023/11/22 04:08:25;;;;;;;4.65;2.38;;;;;;;;;;5018252;28;20036;-77
2023/11/22 04:10:51;;;;;;;3.22;2.20;;;;;;;;;;5016009;28;20014;-78
2023/11/22 04:13:17;;;;;;;3.38;2.20;;;;;;;;;;5012645;28;20109;-77
2023/11/22 04:15:43;;;;;;;2.53;2.25;;;;;;;;;;5003497;28;20125;-78
2023/11/22 04:18:09;;;;;;;2.60;2.15;;;;;;;;;;5017272;28;20488;-78
2023/11/22 04:20:35;;;;;;;3.30;2.20;;;;;;;;;;5013025;28;20101;-78
2023/11/22 04:23:01;;;;;;;2.55;2.17;;;;;;;;;;5017079;28;20065;-76
2023/11/22 04:25:29;;;;;;;2.63;2.03;;;;;;;;;;5026873;28;20101;-77
2023/11/22 04:27:55;;;;;;;2.88;1.80;;;;;;;;;;5026129;28;20033;-77
2023/11/22 04:30:22;;;;;;;2.90;1.90;;;;;;;;;;5027210;28;20041;-79
2023/11/22 04:32:48;;;;;;;2.60;1.80;;;;;;;;;;5036156;28;20013;-79
2023/11/22 04:35:14;;;;;;;2.33;1.73;;;;;;;;;;5031361;28;20018;-79
2023/11/22 04:37:40;;;;;;;2.88;2.08;;;;;;;;;;5029951;28;20036;-79
2023/11/22 04:40:07;;;;;;;2.17;1.70;;;;;;;;;;5030115;28;20044;-79
2023/11/22 04:42:36;;;;;;;2.40;2.17;;;;;;;;;;5031217;28;20026;-80
2023/11/22 04:45:02;;;;;;;2.35;1.90;;;;;;;;;;5045407;28;20025;-80
2023/11/22 04:47:28;;;;;;;4.07;2.47;;;;;;;;;;5038539;28;20050;-79
2023/11/22 04:49:55;;;;;;;2.63;2.08;;;;;;;;;;5042825;28;20030;-80
2023/11/22 04:52:21;;;;;;;2.63;1.90;;;;;;;;;;5033268;28;20030;-79
2023/11/22 04:54:47;;;;;;;2.65;2.42;;;;;;;;;;5019718;28;20032;-83
2023/11/22 04:57:13;;;;;;;2.88;2.05;;;;;;;;;;5012297;28;20029;-80
2023/11/22 04:59:40;;;;;;;2.80;2.00;;;;;;;;;;5026054;28;20037;-80
2023/11/22 05:02:07;;;;;;;2.50;2.10;;;;;;;;;;5020336;28;20376;-79
2023/11/22 05:04:33;;;;;;;2.95;2.38;;;;;;;;;;5016162;28;20018;-79
2023/11/22 05:06:59;;;;;;;1.92;1.73;;;;;;;;;;5017143;28;20364;-80
2023/11/22 05:09:25;;;;;;;1.75;1.65;;;;;;;;;;5018379;28;20068;-80
2023/11/22 05:11:52;;;;;;;2.80;1.85;;;;;;;;;;5019333;28;20041;-81
2023/11/22 05:14:18;;;;;;;2.00;1.48;;;;;;;;;;5026263;28;20028;-79
2023/11/22 05:16:44;;;;;;;2.15;1.95;;;;;;;;;;5034504;28;20060;-79
2023/11/22 05:19:10;;;;;;;2.05;1.80;;;;;;;;;;5020137;28;20033;-80
2023/11/22 05:21:36;;;;;;;1.83;1.60;;;;;;;;;;5031402;28;20037;-79
2023/11/22 05:24:02;;;;;;;1.90;1.70;;;;;;;;;;5032096;28;20010;-79
2023/11/22 05:26:28;;;;;;;2.92;1.88;;;;;;;;;;5036557;28;20441;-80
2023/11/22 05:28:54;;;;;;;1.58;1.35;;;;;;;;;;5012806;28;20140;-79
2023/11/22 05:31:21;;;;;;;2.10;1.58;;;;;;;;;;5019223;28;20029;-79
2023/11/22 05:33:47;;;;;;;2.35;1.83;;;;;;;;;;5020699;28;20030;-79
2023/11/22 05:36:14;;;;;;;2.15;1.85;;;;;;;;;;5021372;28;20053;-79
2023/11/22 05:38:40;;;;;;;2.47;1.80;;;;;;;;;;5015213;28;20041;-80
2023/11/22 05:41:06;;;;;;;1.90;1.70;;;;;;;;;;5014357;28;20046;-80
2023/11/22 05:43:35;;;;;;;2.63;1.60;;;;;;;;;;5025547;28;20026;-80
2023/11/22 05:46:01;;;;;;;2.38;2.05;;;;;;;;;;5032148;28;20022;-80
2023/11/22 05:48:27;;;;;;;2.63;1.80;;;;;;;;;;5016490;28;20109;-80
2023/11/22 05:50:53;;;;;;;1.92;1.77;;;;;;;;;;5014632;28;20033;-80
2023/11/22 05:53:19;;;;;;;2.30;1.75;;;;;;;;;;5016451;28;20022;-80
2023/11/22 05:55:49;;;;;;;2.75;1.90;;;;;;;;;;5016217;28;20044;-80
2023/11/22 05:58:18;;;;;;;2.38;1.73;;;;;;;;;;5016701;28;20022;-79
2023/11/22 06:00:45;;;;;;;1.85;1.73;;;;;;;;;;5013431;28;20034;-79
2023/11/22 06:03:14;;;;;;;2.03;1.60;;;;;;;;;;5015116;28;20057;-81
2023/11/22 06:05:40;;;;;;;2.55;1.58;;;;;;;;;;5015038;28;20080;-80
2023/11/22 06:08:06;;;;;;;2.40;1.75;;;;;;;;;;5016646;28;20022;-79
2023/11/22 06:10:33;;;;;;;1.63;1.40;;;;;;;;;;5022343;28;20024;-79
2023/11/22 06:12:59;;;;;;;1.92;1.73;;;;;;;;;;5020625;28;20018;-80
2023/11/22 06:15:25;;;;;;;2.90;1.88;;;;;;;;;;5022349;28;20024;-80
2023/11/22 06:17:52;;;;;;;2.65;2.03;;;;;;;;;;5023317;28;20057;-79
2023/11/22 06:20:18;;;;;;;1.80;1.67;;;;;;;;;;5022691;28;20018;-80
2023/11/22 06:22:44;;;;;;;1.70;1.60;;;;;;;;;;5023956;28;20101;-80
2023/11/22 06:25:10;;;;;;;3.20;2.08;;;;;;;;;;5025758;28;20034;-80
2023/11/22 06:27:37;;;;;;;2.53;1.80;;;;;;;;;;5023696;28;20026;-78
2023/11/22 06:30:03;;;;;;;2.40;2.20;;;;;;;;;;5044659;28;20173;-79
2023/11/22 06:32:29;;;;;;;2.60;1.85;;;;;;;;;;5020266;28;20025;-79
2023/11/22 06:34:55;;;;;;;4.82;3.10;;;;;;;;;;5018102;28;20018;-78
2023/11/22 06:37:21;;;;;;;3.13;2.22;;;;;;;;;;5016227;28;20049;-78
2023/11/22 06:39:47;;;;;;;3.25;2.28;;;;;;;;;;5027293;28;20070;-78
2023/11/22 06:42:14;;;;;;;2.60;2.20;;;;;;;;;;5021346;28;20036;-79
2023/11/22 06:44:40;;;;;;;2.45;2.20;;;;;;;;;;5019092;28;20038;-77
2023/11/22 06:47:07;;;;;;;2.28;1.92;;;;;;;;;;5022030;28;20056;-79
2023/11/22 06:49:33;;;;;;;5.28;2.50;;;;;;;;;;5023056;28;20018;-78
2023/11/22 06:51:59;;;;;;;2.83;2.42;;;;;;;;;;5019549;28;20097;-78
2023/11/22 06:54:26;;;;;;;3.42;2.38;;;;;;;;;;5025783;28;20013;-78
2023/11/22 06:56:52;;;;;;;4.43;2.75;;;;;;;;;;5016884;28;20021;-77
2023/11/22 06:59:19;;;;;;;3.22;2.67;;;;;;;;;;5018098;28;20014;-79
2023/11/22 07:01:45;;;;;;;3.33;2.67;;;;;;;;;;5018803;28;20040;-78
2023/11/22 07:04:11;;;;;;;3.78;3.08;;;;;;;;;;5017346;28;20018;-78
2023/11/22 07:06:37;;;;;;;4.75;2.53;;;;;;;;;;5027579;28;20045;-78
2023/11/22 07:09:10;;;;;;;2.90;2.58;;;;;;;;;;5016769;28;20033;-78
2023/11/22 07:11:37;;;;;;;6.00;2.70;;;;;;;;;;5018346;28;20022;-78
2023/11/22 07:14:06;;;;;;;3.10;2.80;;;;;;;;;;5012830;28;20433;-79
2023/11/22 07:16:33;;;;;;;4.75;3.22;;;;;;;;;;5016581;28;20029;-79
2023/11/22 07:19:02;;;;;;;4.45;3.28;;;;;;;;;;5020642;28;20026;-79
2023/11/22 07:21:29;;;;;;;4.60;3.00;;;;;;;;;;5020618;28;20157;-78
2023/11/22 07:23:58;;;;;;;5.78;3.63;;;;;;;;;;5017584;28;20030;-78
2023/11/22 07:26:30;;;;;;;5.90;3.58;;;;;;;;;;5014789;28;20026;-78
2023/11/22 07:28:56;;;;;;;5.30;3.30;;;;;;;;;;5022207;28;20040;-78
2023/11/22 07:31:22;;;;;;;4.35;3.00;;;;;;;;;;5024599;28;20022;-78
2023/11/22 07:33:48;;;;;;;3.25;2.47;;;;;;;;;;5021187;28;20048;-77
2023/11/22 07:36:15;;;;;;;3.50;2.65;;;;;;;;;;5020654;28;20026;-78
2023/11/22 07:38:42;;;;;;;3.85;2.90;;;;;;;;;;5016597;28;20435;-78
2023/11/22 07:41:09;;;;;;;3.92;2.45;;;;;;;;;;5023673;28;20040;-78
2023/11/22 07:43:44;;;;;;;4.07;2.97;;;;;;;;;;5027757;28;20022;-78
2023/11/22 07:46:12;;;;;;;3.30;2.78;;;;;;;;;;5023423;28;20093;-78
2023/11/22 07:48:46;;;;;;;3.20;2.58;;;;;;;;;;5040042;28;20029;-78
2023/11/22 07:51:16;;;;;;;4.45;3.28;;;;;;;;;;5029833;28;20018;-79
2023/11/22 07:53:43;;;;;;;4.03;3.33;;;;;;;;;;5031636;28;20085;-78
2023/11/22 07:56:11;;;;;;;6.70;3.53;;;;;;;;;;5021715;28;20029;-78
2023/11/22 07:58:37;;;;;;;4.78;3.67;;;;;;;;;;5023892;28;20050;-79
2023/11/22 08:01:06;;;;;;;5.00;3.10;;;;;;;;;;5021986;28;20037;-79
2023/11/22 08:03:32;;;;;;;4.25;2.90;;;;;;;;;;5015492;28;20025;-77
2023/11/22 08:05:58;;;;;;;2.92;2.60;;;;;;;;;;5011748;28;20032;-81
2023/11/22 08:08:25;;;;;;;3.83;3.03;;;;;;;;;;5020880;28;20026;-77
2023/11/22 08:10:53;;;;;;;3.28;2.83;;;;;;;;;;5018649;28;20017;-77
2023/11/22 08:13:22;;;;;;;8.23;4.22;;;;;;;;;;5017734;28;20551;-79
2023/11/22 08:15:48;;;;;;;7.05;3.72;;;;;;;;;;5017735;28;20018;-78
2023/11/22 08:18:16;;;;;;;4.97;3.72;;;;;;;;;;5019765;28;20030;-78
2023/11/22 08:20:43;;;;;;;4.07;3.65;;;;;;;;;;5018780;28;20028;-78
2023/11/22 08:23:10;;;;;;;5.07;3.58;;;;;;;;;;5021964;28;20014;-78
2023/11/22 08:25:38;;;;;;;6.13;4.35;;;;;;;;;;5018990;28;20030;-78
2023/11/22 08:28:07;;;;;;;7.13;4.18;;;;;;;;;;5017482;28;20028;-77
2023/11/22 08:30:35;;;;;;;7.53;3.85;;;;;;;;;;5026079;28;20151;-78
2023/11/22 08:33:02;;;;;;;5.97;3.72;;;;;;;;;;5027516;28;20022;-77
2023/11/22 08:35:28;;;;;;;6.00;4.03;;;;;;;;;;5028190;28;20022;-78
2023/11/22 08:37:57;;;;;;;6.47;3.42;;;;;;;;;;5018925;28;20040;-77
2023/11/22 08:40:23;;;;;;;6.28;3.90;;;;;;;;;;5017445;28;20103;-78
2023/11/22 08:42:49;;;;;;;5.80;4.40;;;;;;;;;;5017393;28;20140;-78
2023/11/22 08:45:16;;;;;;;5.03;3.50;;;;;;;;;;5023723;28;20022;-78
2023/11/22 08:47:42;;;;;;;4.07;3.03;;;;;;;;;;5021315;28;20054;-78
2023/11/22 08:50:12;;;;;;;4.25;3.47;;;;;;;;;;5022852;28;20026;-78
2023/11/22 08:52:39;;;;;;;4.63;3.33;;;;;;;;;;5016996;28;20022;-78
2023/11/22 08:55:07;;;;;;;4.10;3.63;;;;;;;;;;5017937;28;20022;-78
2023/11/22 08:57:34;;;;;;;5.32;3.40;;;;;;;;;;5019557;28;20029;-80
2023/11/22 09:00:06;;;;;;;4.00;3.17;;;;;;;;;;5018012;28;20030;-79
2023/11/22 09:02:33;;;;;;;3.97;3.25;;;;;;;;;;5017953;28;20493;-78
2023/11/22 09:04:59;;;;;;;3.97;3.15;;;;;;;;;;5017414;28;20022;-78
2023/11/22 09:07:25;;;;;;;4.40;3.17;;;;;;;;;;5018398;28;20470;-78
2023/11/22 09:09:52;;;;;;;6.32;3.78;;;;;;;;;;5019885;28;20029;-79
2023/11/22 09:12:19;;;;;;;5.22;3.45;;;;;;;;;;5018836;28;20041;-78
2023/11/22 09:14:45;;;;;;;5.75;3.10;;;;;;;;;;5023950;28;20052;-79
2023/11/22 09:17:13;;;;;;;4.15;3.35;;;;;;;;;;5032004;28;20032;-79
2023/11/22 09:19:39;;;;;;;9.10;3.92;;;;;;;;;;5030147;28;20463;-78
2023/11/22 09:22:06;;;;;;;5.93;3.83;;;;;;;;;;5020750;28;20018;-80
2023/11/22 09:24:33;;;;;;;6.00;3.90;;;;;;;;;;5020428;28;20014;-78
2023/11/22 09:27:00;;;;;;;3.83;3.42;;;;;;;;;;5018583;28;20024;-78
2023/11/22 09:29:26;;;;;;;3.90;3.30;;;;;;;;;;5020034;28;20022;-81
2023/11/22 09:31:53;;;;;;;4.13;3.17;;;;;;;;;;5019834;28;20037;-78
2023/11/22 09:34:20;;;;;;;4.45;2.88;;;;;;;;;;5020046;28;20066;-78
2023/11/22 09:36:46;;;;;;;4.65;3.25;;;;;;;;;;5019849;28;20052;-78
2023/11/22 09:39:12;;;;;;;4.13;3.70;;;;;;;;;;5027143;28;20021;-79
2023/11/22 09:41:39;;;;;;;5.60;3.58;;;;;;;;;;5031033;28;20018;-78
2023/11/22 09:44:06;;;;;;;3.30;2.83;;;;;;;;;;5043049;28;20025;-77
2023/11/22 09:46:34;;;;;;;3.50;2.80;;;;;;;;;;5030490;28;20077;-78
2023/11/22 09:49:02;;;;;;;2.80;2.53;;;;;;;;;;5035748;28;20029;-77
2023/11/22 09:51:29;;;;;;;2.72;2.53;;;;;;;;;;5030717;28;20018;-79
2023/11/22 09:54:07;;;;;;;3.78;2.78;;;;;;;;;;5028244;28;20033;-78
2023/11/22 09:56:36;;;;;;;3.08;2.60;;;;;;;;;;5026277;28;20026;-78
2023/11/22 09:59:03;;;;;;;4.63;3.25;;;;;;;;;;5009304;28;20069;-78
2023/11/22 10:01:30;;;;;;;4.13;3.40;;;;;;;;;;5025479;28;20025;-77
2023/11/22 10:03:57;;;;;;;3.13;2.83;;;;;;;;;;5024974;28;20072;-78
2023/11/22 10:06:23;;;;;;;3.75;3.00;;;;;;;;;;5026377;28;20037;-78
2023/11/22 10:08:51;;;;;;;3.05;2.75;;;;;;;;;;5024549;28;20195;-78
2023/11/22 10:11:17;;;;;;;2.83;2.33;;;;;;;;;;5025638;28;20045;-77
2023/11/22 10:13:45;;;;;;;4.10;3.15;;;;;;;;;;5029973;28;20117;-79
2023/11/22 10:16:21;;;;;;;2.92;2.33;;;;;;;;;;5023866;28;20026;-78
2023/11/22 10:18:48;;;;;;;3.35;2.35;;;;;;;;;;5021667;28;20032;-78
2023/11/22 10:21:21;;;;;;;2.72;2.42;;;;;;;;;;5023334;28;20026;-79
2023/11/22 10:23:48;;;;;;;3.55;3.22;;;;;;;;;;5024795;28;20163;-79
2023/11/22 10:26:17;;;;;;;4.15;2.85;;;;;;;;;;5028561;28;20049;-79
2023/11/22 10:28:43;;;;;;;3.75;2.60;;;;;;;;;;5021227;28;20436;-80
2023/11/22 10:31:09;;;;;;;3.08;2.60;;;;;;;;;;5025091;28;20034;-79
2023/11/22 10:33:43;;;;;;;2.55;2.33;;;;;;;;;;5028456;28;20094;-78
2023/11/22 10:36:10;;;;;;;2.72;2.45;;;;;;;;;;5024354;28;20017;-78
2023/11/22 10:38:36;;;;;;;3.13;2.55;;;;;;;;;;5032669;28;20006;-78
2023/11/22 10:41:10;;;;;;;3.08;2.53;;;;;;;;;;5032496;28;20026;-78
2023/11/22 10:43:36;;;;;;;3.22;2.47;;;;;;;;;;5022870;28;20014;-78
2023/11/22 10:46:04;;;;;;;2.35;2.15;;;;;;;;;;5021426;28;20032;-79
2023/11/22 10:48:31;;;;;;;3.28;2.40;;;;;;;;;;5020187;28;20034;-79
2023/11/22 10:50:58;;;;;;;3.50;2.50;;;;;;;;;;5020645;28;20102;-79
2023/11/22 10:53:34;;;;;;;2.75;2.40;;;;;;;;;;5019909;28;20072;-80
2023/11/22 10:56:20;;;;;;;2.15;1.95;;;;;;;;;;5022385;28;20033;-78
2023/11/22 10:58:56;;;;;;;2.65;1.98;;;;;;;;;;5020218;28;20036;-78
2023/11/22 11:01:30;;;;;;;2.88;2.10;;;;;;;;;;5020735;28;20384;-78
2023/11/22 11:04:05;;;;;;;2.95;2.58;;;;;;;;;;5031185;28;20029;-78
2023/11/22 11:06:33;;;;;;;3.40;2.50;;;;;;;;;;5020052;28;20129;-78
2023/11/22 11:09:00;;;;;;;2.55;2.35;;;;;;;;;;5020485;28;20126;-78
2023/11/22 11:11:28;;;;;;;3.00;2.63;;;;;;;;;;5030665;28;20025;-80
2023/11/22 11:13:54;;;;;;;3.10;2.80;;;;;;;;;;5029511;28;20025;-80
2023/11/22 11:16:21;;;;;;;3.55;2.25;;;;;;;;;;5021323;28;20336;-78
2023/11/22 11:18:48;;;;;;;3.00;2.33;;;;;;;;;;5021061;28;20029;-79
2023/11/22 11:21:15;;;;;;;2.58;2.38;;;;;;;;;;5020517;28;20022;-78
2023/11/22 11:23:44;;;;;;;2.38;2.03;;;;;;;;;;5021667;28;20024;-79
2023/11/22 11:26:21;;;;;;;3.15;2.33;;;;;;;;;;5019802;28;20466;-79
2023/11/22 11:28:48;;;;;;;4.35;2.70;;;;;;;;;;5019318;28;20076;-79
2023/11/22 11:31:14;;;;;;;3.35;2.95;;;;;;;;;;5018908;28;20022;-80
2023/11/22 11:33:53;;;;;;;2.30;2.10;;;;;;;;;;5020809;28;20026;-79
2023/11/22 11:36:26;;;;;;;4.07;2.40;;;;;;;;;;5023695;28;20037;-79
2023/11/22 11:38:54;;;;;;;3.28;2.25;;;;;;;;;;5029271;28;20025;-78
2023/11/22 11:41:23;;;;;;;4.03;2.60;;;;;;;;;;5021503;28;20045;-79
2023/11/22 11:43:50;;;;;;;2.42;2.20;;;;;;;;;;5032456;28;20026;-78
2023/11/22 11:46:16;;;;;;;2.63;2.30;;;;;;;;;;5026357;28;20043;-79
2023/11/22 11:48:43;;;;;;;1.92;1.83;;;;;;;;;;5017124;28;20030;-78
2023/11/22 11:51:11;;;;;;;2.13;1.95;;;;;;;;;;5009447;28;20024;-79
2023/11/22 11:53:38;;;;;;;2.45;2.25;;;;;;;;;;5018071;28;20025;-78
2023/11/22 11:56:04;;;;;;;2.42;2.08;;;;;;;;;;5018235;28;20077;-79
2023/11/22 11:58:30;;;;;;;2.10;1.90;;;;;;;;;;5012868;28;20026;-78
2023/11/22 12:00:56;;;;;;;2.17;1.90;;;;;;;;;;5017549;28;20022;-79
2023/11/22 12:03:23;;;;;;;1.95;1.75;;;;;;;;;;5027081;28;20029;-81
2023/11/22 12:05:50;;;;;;;2.13;1.90;;;;;;;;;;5039828;28;20194;-79
2023/11/22 12:08:18;;;;;;;2.20;2.00;;;;;;;;;;5027051;22;20047;-77
2023/11/22 12:10:48;;;;;;;1.65;1.55;;;;;;;;;;5005193;28;20026;-78
2023/11/22 12:13:17;;;;;;;1.92;1.70;;;;;;;;;;5009659;28;20022;-78
2023/11/22 12:15:43;;;;;;;2.35;1.90;;;;;;;;;;5014238;28;20065;-78
2023/11/22 12:18:11;;;;;;;2.65;1.60;;;;;;;;;;5014828;28;20640;-79
2023/11/22 12:20:38;;;;;;;1.83;1.58;;;;;;;;;;4996790;28;20030;-77
2023/11/22 12:23:04;;;;;;;1.73;1.63;;;;;;;;;;4996177;28;20209;-78
2023/11/22 12:25:30;;;;;;;1.98;1.63;;;;;;;;;;4993066;28;20081;-79
2023/11/22 12:27:57;;;;;;;2.58;2.13;;;;;;;;;;5005608;28;20031;-78
2023/11/22 12:30:36;;;;;;;2.50;1.58;;;;;;;;;;4995688;28;20459;-78
2023/11/22 12:33:09;;;;;;;1.98;1.73;;;;;;;;;;4991414;28;20015;-78
2023/11/22 12:35:35;;;;;;;;;;;;;;;;;;5005567;28;20018;-79
2023/11/22 12:38:02;;;;;;;1.60;1.50;;;;;;;;;;4992485;28;19993;-78
2023/11/22 12:40:31;;;;;;;2.17;1.98;;;;;;;;;;4993306;28;20045;-78
2023/11/22 12:42:58;;;;;;;2.75;1.92;;;;;;;;;;4992720;28;20087;-78
2023/11/22 12:45:25;;;;;;;4.95;2.17;;;;;;;;;;5013212;28;20089;-78
2023/11/22 12:47:52;;;;;;;4.03;2.42;;;;;;;;;;4996120;28;20053;-78
2023/11/22 12:50:40;;;;;;;2.47;2.10;;;;;;;;;;5000864;28;20030;-78
2023/11/22 12:53:13;;;;;;;2.60;2.20;;;;;;;;;;4994730;28;20017;-78
2023/11/22 12:55:48;;;;;;;1.83;1.65;;;;;;;;;;4997882;28;20018;-78
2023/11/22 12:58:15;;;;;;;2.85;2.15;;;;;;;;;;4991819;28;20580;-79
2023/11/22 13:00:41;;;;;;;1.85;1.63;;;;;;;;;;4993263;28;20026;-79
2023/11/22 13:03:10;;;;;;;2.20;1.90;;;;;;;;;;4998756;28;20027;-78
2023/11/22 13:05:36;;;;;;;2.38;1.92;;;;;;;;;;4999870;28;20015;-79
2023/11/22 13:08:03;;;;;;;2.38;1.88;;;;;;;;;;4998661;28;20026;-79
2023/11/22 13:10:30;;;;;;;2.28;1.70;;;;;;;;;;4996838;28;20026;-78
2023/11/22 13:12:56;;;;;;;3.03;1.98;;;;;;;;;;5003132;28;20030;-78
2023/11/22 13:15:23;;;;;;;3.58;2.00;;;;;;;;;;5007680;28;20018;-78
2023/11/22 13:17:50;;;;;;;1.52;1.42;;;;;;;;;;5005372;28;20037;-78
2023/11/22 13:20:16;;;;;;;1.67;1.58;;;;;;;;;;5011841;28;20481;-78
2023/11/22 13:22:42;;;;;;;2.22;1.73;;;;;;;;;;5010208;28;20082;-77
2023/11/22 13:25:18;;;;;;;3.92;1.85;;;;;;;;;;5017364;28;20045;-78
2023/11/22 13:27:44;;;;;;;4.45;2.10;;;;;;;;;;5007317;28;20166;-78
2023/11/22 13:30:11;;;;;;;2.72;2.13;;;;;;;;;;5003158;28;20026;-77
2023/11/22 13:32:39;;;;;;;2.35;2.15;;;;;;;;;;5002521;28;20033;-78
2023/11/22 13:35:12;;;;;;;2.03;1.83;;;;;;;;;;5000683;28;20027;-78
2023/11/22 13:37:41;;;;;;;2.63;2.22;;;;;;;;;;4995202;28;20046;-78
2023/11/22 13:40:12;;;;;;;2.47;2.28;;;;;;;;;;4994810;28;20473;-78
2023/11/22 13:42:38;;;;;;;2.35;1.73;;;;;;;;;;4993616;28;20026;-77
2023/11/22 13:45:05;;;;;;;1.52;1.42;;;;;;;;;;4997587;28;20057;-78
2023/11/22 13:47:31;;;;;;;2.13;1.88;;;;;;;;;;4997912;28;20030;-78
2023/11/22 13:49:59;;;;;;;1.63;1.52;;;;;;;;;;4988868;28;20097;-77
2023/11/22 13:52:25;;;;;;;2.97;2.17;;;;;;;;;;4992474;28;20019;-77
2023/11/22 13:54:56;;;;;;;3.65;1.77;;;;;;;;;;4992578;28;20053;-78
2023/11/22 13:57:22;;;;;;;2.10;1.90;;;;;;;;;;4994812;28;20033;-78
2023/11/22 13:59:48;;;;;;;5.57;2.25;;;;;;;;;;5000357;28;20488;-79
2023/11/22 14:02:16;;;;;;;1.70;1.52;;;;;;;;;;4988994;28;20546;-78
2023/11/22 14:04:42;;;;;;;2.33;1.90;;;;;;;;;;4992013;28;20477;-78
2023/11/22 14:07:11;;;;;;;2.15;1.70;;;;;;;;;;5007609;28;20064;-79
2023/11/22 14:09:37;;;;;;;2.30;2.10;;;;;;;;;;5004953;28;20046;-80
2023/11/22 14:12:03;;;;;;;1.75;1.48;;;;;;;;;;4995397;28;20030;-78
2023/11/22 14:14:29;;;;;;;1.70;1.60;;;;;;;;;;5010482;28;20456;-78
2023/11/22 14:16:56;;;;;;;1.67;1.48;;;;;;;;;;5006096;28;20027;-78
2023/11/22 14:19:22;;;;;;;1.73;1.42;;;;;;;;;;5003710;28;20425;-79
2023/11/22 14:21:48;;;;;;;1.67;1.40;;;;;;;;;;4996821;28;20031;-77
2023/11/22 14:24:14;;;;;;;1.58;1.48;;;;;;;;;;5005504;28;20026;-77
2023/11/22 14:26:40;;;;;;;2.53;2.28;;;;;;;;;;5011455;28;20041;-78
2023/11/22 14:29:07;;;;;;;2.55;2.25;;;;;;;;;;4993532;28;20058;-78
2023/11/22 14:31:34;;;;;;;1.90;1.73;;;;;;;;;;4997192;28;20018;-78
2023/11/22 14:34:00;;;;;;;2.47;2.28;;;;;;;;;;4997278;28;20029;-79
2023/11/22 14:36:26;;;;;;;2.25;2.05;;;;;;;;;;5010804;28;20553;-79
2023/11/22 14:38:56;;;;;;;2.60;2.40;;;;;;;;;;5019482;28;20026;-80
2023/11/22 14:41:23;;;;;;;2.38;2.17;;;;;;;;;;5006869;28;20045;-76
2023/11/22 14:43:49;;;;;;;3.20;2.10;;;;;;;;;;5003992;28;20030;-78